sensor_id;sensor_type;location;lat;lon;timestamp;temperature;humidity
31765;DHT22;18338;53.240;8.798;2023-03-23T00:01:17;11.00;99.90
31765;DHT22;18338;53.240;8.798;2023-03-23T00:03:48;11.00;99.90
31765;DHT22;18338;53.240;8.798;2023-03-23T00:06:14;11.00;99.90
31765;DHT22;18338;53.240;8.798;2023-03-23T00:08:44;11.00;99.90
31765;DHT22;18338;53.240;8.798;2023-03-23T00:11:15;11.00;99.90
31765;DHT22;18338;53.240;8.798;2023-03-23T00:13:45;11.00;99.90
31765;DHT22;18338;53.240;8.798;2023-03-23T00:16:13;11.10;99.90
31765;DHT22;18338;53.240;8.798;2023-03-23T00:18:46;11.10;99.90
31765;DHT22;18338;53.240;8.798;2023-03-23T00:21:12;11.10;99.90
31765;DHT22;18338;53.240;8.798;2023-03-23T00:23:39;11.10;99.90
31765;DHT22;18338;53.240;8.798;2023-03-23T00:26:05;11.10;99.90
31765;DHT22;18338;53.240;8.798;2023-03-23T00:28:31;11.10;99.90
31765;DHT22;18338;53.240;8.798;2023-03-23T00:30:57;11.10;99.90
31765;DHT22;18338;53.240;8.798;2023-03-23T00:33:24;11.10;99.90
31765;DHT22;18338;53.240;8.798;2023-03-23T00:35:52;11.10;99.90
31765;DHT22;18338;53.240;8.798;2023-03-23T00:38:19;11.20;99.90
31765;DHT22;18338;53.240;8.798;2023-03-23T00:40:45;11.10;99.90
31765;DHT22;18338;53.240;8.798;2023-03-23T00:43:16;11.10;99.90
31765;DHT22;18338;53.240;8.798;2023-03-23T00:45:43;11.20;99.90
31765;DHT22;18338;53.240;8.798;2023-03-23T00:48:11;11.20;99.90
31765;DHT22;18338;53.240;8.798;2023-03-23T00:50:40;11.20;99.90
31765;DHT22;18338;53.240;8.798;2023-03-23T00:53:07;11.20;99.90
31765;DHT22;18338;53.240;8.798;2023-03-23T00:55:33;11.20;99.90
31765;DHT22;18338;53.240;8.798;2023-03-23T00:57:59;11.20;99.90
31765;DHT22;18338;53.240;8.798;2023-03-23T01:00:25;11.20;99.90
31765;DHT22;18338;53.240;8.798;2023-03-23T01:02:53;11.20;99.90
31765;DHT22;18338;53.240;8.798;2023-03-23T01:05:19;11.20;99.90
31765;DHT22;18338;53.240;8.798;2023-03-23T01:07:45;11.20;99.90
31765;DHT22;18338;53.240;8.798;2023-03-23T01:10:11;11.20;99.90
31765;DHT22;18338;53.240;8.798;2023-03-23T01:12:41;11.20;99.90
31765;DHT22;18338;53.240;8.798;2023-03-23T01:15:07;11.20;99.90
31765;DHT22;18338;53.240;8.798;2023-03-23T01:17:32;11.20;99.90
31765;DHT22;18338;53.240;8.798;2023-03-23T01:19:58;11.20;99.90
31765;DHT22;18338;53.240;8.798;2023-03-23T01:22:24;11.20;99.90
31765;DHT22;18338;53.240;8.798;2023-03-23T01:24:50;11.20;99.90
31765;DHT22;18338;53.240;8.798;2023-03-23T01:27:16;11.30;99.90
31765;DHT22;18338;53.240;8.798;2023-03-23T01:29:42;11.20;99.90
31765;DHT22;18338;53.240;8.798;2023-03-23T01:32:07;11.30;99.90
31765;DHT22;18338;53.240;8.798;2023-03-23T01:34:33;11.30;99.90
31765;DHT22;18338;53.240;8.798;2023-03-23T01:36:59;11.30;99.90
31765;DHT22;18338;53.240;8.798;2023-03-23T01:39:24;11.30;99.90
31765;DHT22;18338;53.240;8.798;2023-03-23T01:41:50;11.30;99.90
31765;DHT22;18338;53.240;8.798;2023-03-23T01:46:41;11.30;99.90
31765;DHT22;18338;53.240;8.798;2023-03-23T01:49:17;11.30;99.90
31765;DHT22;18338;53.240;8.798;2023-03-23T01:51:46;11.30;99.90
31765;DHT22;18338;53.240;8.798;2023-03-23T01:54:16;11.30;99.90
31765;DHT22;18338;53.240;8.798;2023-03-23T01:56:52;11.30;99.90
31765;DHT22;18338;53.240;8.798;2023-03-23T01:59:20;11.30;99.90
31765;DHT22;18338;53.240;8.798;2023-03-23T02:01:47;11.30;99.90
31765;DHT22;18338;53.240;8.798;2023-03-23T02:04:14;11.30;99.90
31765;DHT22;18338;53.240;8.798;2023-03-23T02:06:42;11.30;99.90
31765;DHT22;18338;53.240;8.798;2023-03-23T02:09:10;11.30;99.90
31765;DHT22;18338;53.240;8.798;2023-03-23T02:11:37;11.30;99.90
31765;DHT22;18338;53.240;8.798;2023-03-23T02:14:03;11.30;99.90
31765;DHT22;18338;53.240;8.798;2023-03-23T02:16:38;11.30;99.90
31765;DHT22;18338;53.240;8.798;2023-03-23T02:22:07;11.30;99.90
31765;DHT22;18338;53.240;8.798;2023-03-23T02:25:09;11.30;99.90
31765;DHT22;18338;53.240;8.798;2023-03-23T02:38:35;11.20;99.90
31765;DHT22;18338;53.240;8.798;2023-03-23T02:41:03;11.20;99.90
31765;DHT22;18338;53.240;8.798;2023-03-23T02:43:40;11.20;99.90
31765;DHT22;18338;53.240;8.798;2023-03-23T02:46:09;11.20;99.90
31765;DHT22;18338;53.240;8.798;2023-03-23T02:48:36;11.20;99.90
31765;DHT22;18338;53.240;8.798;2023-03-23T02:51:05;11.20;99.90
31765;DHT22;18338;53.240;8.798;2023-03-23T02:53:34;11.20;99.90
31765;DHT22;18338;53.240;8.798;2023-03-23T02:56:03;11.20;99.90
31765;DHT22;18338;53.240;8.798;2023-03-23T02:58:30;11.20;99.90
31765;DHT22;18338;53.240;8.798;2023-03-23T03:00:56;11.20;99.90
31765;DHT22;18338;53.240;8.798;2023-03-23T03:03:28;11.20;99.90
31765;DHT22;18338;53.240;8.798;2023-03-23T03:06:12;11.20;99.90
31765;DHT22;18338;53.240;8.798;2023-03-23T03:09:02;11.20;99.90
31765;DHT22;18338;53.240;8.798;2023-03-23T03:11:31;11.10;99.90
31765;DHT22;18338;53.240;8.798;2023-03-23T03:14:29;11.20;99.90
31765;DHT22;18338;53.240;8.798;2023-03-23T03:17:25;11.20;99.90
31765;DHT22;18338;53.240;8.798;2023-03-23T03:20:01;11.20;99.90
31765;DHT22;18338;53.240;8.798;2023-03-23T03:22:38;11.20;99.90
31765;DHT22;18338;53.240;8.798;2023-03-23T03:25:05;11.20;99.90
31765;DHT22;18338;53.240;8.798;2023-03-23T03:27:31;11.20;99.90
31765;DHT22;18338;53.240;8.798;2023-03-23T03:29:59;11.20;99.90
31765;DHT22;18338;53.240;8.798;2023-03-23T03:32:31;11.20;99.90
31765;DHT22;18338;53.240;8.798;2023-03-23T03:35:01;11.20;99.90
31765;DHT22;18338;53.240;8.798;2023-03-23T03:37:33;11.10;99.90
31765;DHT22;18338;53.240;8.798;2023-03-23T03:39:59;11.10;99.90
31765;DHT22;18338;53.240;8.798;2023-03-23T03:42:25;11.10;99.90
31765;DHT22;18338;53.240;8.798;2023-03-23T03:44:51;11.10;99.90
31765;DHT22;18338;53.240;8.798;2023-03-23T03:47:16;11.20;99.90
31765;DHT22;18338;53.240;8.798;2023-03-23T03:49:42;11.20;99.90
31765;DHT22;18338;53.240;8.798;2023-03-23T03:52:08;11.20;99.90
31765;DHT22;18338;53.240;8.798;2023-03-23T03:54:33;11.20;99.90
31765;DHT22;18338;53.240;8.798;2023-03-23T03:56:59;11.20;99.90
31765;DHT22;18338;53.240;8.798;2023-03-23T03:59:24;11.30;99.90
31765;DHT22;18338;53.240;8.798;2023-03-23T04:01:52;11.20;99.90
31765;DHT22;18338;53.240;8.798;2023-03-23T04:04:20;11.20;99.90
31765;DHT22;18338;53.240;8.798;2023-03-23T04:06:48;11.30;99.90
31765;DHT22;18338;53.240;8.798;2023-03-23T04:09:15;11.30;99.90
31765;DHT22;18338;53.240;8.798;2023-03-23T04:11:40;11.30;99.90
31765;DHT22;18338;53.240;8.798;2023-03-23T04:14:06;11.30;99.90
31765;DHT22;18338;53.240;8.798;2023-03-23T04:16:32;11.30;99.90
31765;DHT22;18338;53.240;8.798;2023-03-23T04:19:00;11.20;99.90
31765;DHT22;18338;53.240;8.798;2023-03-23T04:21:26;11.30;99.90
31765;DHT22;18338;53.240;8.798;2023-03-23T04:23:55;11.30;99.90
31765;DHT22;18338;53.240;8.798;2023-03-23T04:26:26;11.20;99.90
31765;DHT22;18338;53.240;8.798;2023-03-23T04:28:54;11.30;99.90
31765;DHT22;18338;53.240;8.798;2023-03-23T04:31:22;11.30;99.90
31765;DHT22;18338;53.240;8.798;2023-03-23T04:33:50;11.30;99.90
31765;DHT22;18338;53.240;8.798;2023-03-23T04:36:19;11.30;99.90
31765;DHT22;18338;53.240;8.798;2023-03-23T04:38:45;11.30;99.90
31765;DHT22;18338;53.240;8.798;2023-03-23T04:41:11;11.30;99.90
31765;DHT22;18338;53.240;8.798;2023-03-23T04:43:37;11.30;99.90
31765;DHT22;18338;53.240;8.798;2023-03-23T04:46:07;11.30;99.90
31765;DHT22;18338;53.240;8.798;2023-03-23T04:48:36;11.30;99.90
31765;DHT22;18338;53.240;8.798;2023-03-23T04:51:05;11.30;99.90
31765;DHT22;18338;53.240;8.798;2023-03-23T04:53:31;11.30;99.90
31765;DHT22;18338;53.240;8.798;2023-03-23T04:55:57;11.20;99.90
31765;DHT22;18338;53.240;8.798;2023-03-23T04:58:23;11.20;99.90
31765;DHT22;18338;53.240;8.798;2023-03-23T05:00:50;11.30;99.90
31765;DHT22;18338;53.240;8.798;2023-03-23T05:03:17;11.30;99.90
31765;DHT22;18338;53.240;8.798;2023-03-23T05:05:43;11.20;99.90
31765;DHT22;18338;53.240;8.798;2023-03-23T05:08:15;11.20;99.90
31765;DHT22;18338;53.240;8.798;2023-03-23T05:10:40;11.20;99.90
31765;DHT22;18338;53.240;8.798;2023-03-23T05:13:06;11.20;99.90
31765;DHT22;18338;53.240;8.798;2023-03-23T05:15:33;11.30;99.90
31765;DHT22;18338;53.240;8.798;2023-03-23T05:17:59;11.30;99.90
31765;DHT22;18338;53.240;8.798;2023-03-23T05:20:24;11.30;99.90
31765;DHT22;18338;53.240;8.798;2023-03-23T05:22:50;11.30;99.90
31765;DHT22;18338;53.240;8.798;2023-03-23T05:25:17;11.20;99.90
31765;DHT22;18338;53.240;8.798;2023-03-23T05:27:46;11.20;99.90
31765;DHT22;18338;53.240;8.798;2023-03-23T05:30:18;11.10;99.90
31765;DHT22;18338;53.240;8.798;2023-03-23T05:32:44;11.10;99.90
31765;DHT22;18338;53.240;8.798;2023-03-23T05:35:11;11.10;99.90
31765;DHT22;18338;53.240;8.798;2023-03-23T05:37:37;11.10;99.90
31765;DHT22;18338;53.240;8.798;2023-03-23T05:40:05;11.20;99.90
31765;DHT22;18338;53.240;8.798;2023-03-23T05:42:32;11.20;99.90
31765;DHT22;18338;53.240;8.798;2023-03-23T05:45:00;11.20;99.90
31765;DHT22;18338;53.240;8.798;2023-03-23T05:47:26;11.10;99.90
31765;DHT22;18338;53.240;8.798;2023-03-23T05:49:52;11.10;99.90
31765;DHT22;18338;53.240;8.798;2023-03-23T05:52:19;11.10;99.90
31765;DHT22;18338;53.240;8.798;2023-03-23T05:54:44;11.10;99.90
31765;DHT22;18338;53.240;8.798;2023-03-23T05:57:10;11.10;99.90
31765;DHT22;18338;53.240;8.798;2023-03-23T05:59:36;11.20;99.90
31765;DHT22;18338;53.240;8.798;2023-03-23T06:02:03;11.20;99.90
31765;DHT22;18338;53.240;8.798;2023-03-23T06:04:29;11.20;99.90
31765;DHT22;18338;53.240;8.798;2023-03-23T06:06:55;11.20;99.90
31765;DHT22;18338;53.240;8.798;2023-03-23T06:09:21;11.10;99.90
31765;DHT22;18338;53.240;8.798;2023-03-23T06:11:49;11.10;99.90
31765;DHT22;18338;53.240;8.798;2023-03-23T06:14:15;11.10;99.90
31765;DHT22;18338;53.240;8.798;2023-03-23T06:16:42;11.10;99.90
31765;DHT22;18338;53.240;8.798;2023-03-23T06:19:08;11.10;99.90
31765;DHT22;18338;53.240;8.798;2023-03-23T06:21:35;11.10;99.90
31765;DHT22;18338;53.240;8.798;2023-03-23T06:24:01;11.20;99.90
31765;DHT22;18338;53.240;8.798;2023-03-23T06:26:32;11.40;99.90
31765;DHT22;18338;53.240;8.798;2023-03-23T06:28:59;11.70;99.90
31765;DHT22;18338;53.240;8.798;2023-03-23T06:31:26;11.90;99.90
31765;DHT22;18338;53.240;8.798;2023-03-23T06:33:53;11.90;99.90
31765;DHT22;18338;53.240;8.798;2023-03-23T06:36:19;12.00;99.90
31765;DHT22;18338;53.240;8.798;2023-03-23T06:38:45;12.00;99.90
31765;DHT22;18338;53.240;8.798;2023-03-23T06:41:11;12.10;99.90
31765;DHT22;18338;53.240;8.798;2023-03-23T06:43:36;12.10;99.90
31765;DHT22;18338;53.240;8.798;2023-03-23T06:46:05;12.20;99.90
31765;DHT22;18338;53.240;8.798;2023-03-23T06:48:31;12.30;99.90
31765;DHT22;18338;53.240;8.798;2023-03-23T06:50:57;12.30;99.90
31765;DHT22;18338;53.240;8.798;2023-03-23T06:53:23;12.30;99.90
31765;DHT22;18338;53.240;8.798;2023-03-23T06:55:49;12.20;99.90
31765;DHT22;18338;53.240;8.798;2023-03-23T06:58:14;12.10;99.90
31765;DHT22;18338;53.240;8.798;2023-03-23T07:00:40;12.00;99.90
31765;DHT22;18338;53.240;8.798;2023-03-23T07:03:06;12.00;99.90
31765;DHT22;18338;53.240;8.798;2023-03-23T07:05:33;11.90;99.90
31765;DHT22;18338;53.240;8.798;2023-03-23T07:07:59;11.80;99.90
31765;DHT22;18338;53.240;8.798;2023-03-23T07:10:25;11.70;99.90
31765;DHT22;18338;53.240;8.798;2023-03-23T07:12:50;11.60;99.90
31765;DHT22;18338;53.240;8.798;2023-03-23T07:15:16;11.60;99.90
31765;DHT22;18338;53.240;8.798;2023-03-23T07:17:42;11.60;99.90
31765;DHT22;18338;53.240;8.798;2023-03-23T07:20:08;11.60;99.90
31765;DHT22;18338;53.240;8.798;2023-03-23T07:22:34;11.50;99.90
31765;DHT22;18338;53.240;8.798;2023-03-23T07:25:00;11.50;99.90
31765;DHT22;18338;53.240;8.798;2023-03-23T07:27:27;11.50;99.90
31765;DHT22;18338;53.240;8.798;2023-03-23T07:29:53;11.40;99.90
31765;DHT22;18338;53.240;8.798;2023-03-23T07:32:18;11.30;99.90
31765;DHT22;18338;53.240;8.798;2023-03-23T07:34:45;11.20;99.90
31765;DHT22;18338;53.240;8.798;2023-03-23T07:37:11;11.10;99.90
31765;DHT22;18338;53.240;8.798;2023-03-23T07:39:37;11.00;99.90
31765;DHT22;18338;53.240;8.798;2023-03-23T07:42:03;11.00;99.90
31765;DHT22;18338;53.240;8.798;2023-03-23T07:44:28;10.80;99.90
31765;DHT22;18338;53.240;8.798;2023-03-23T07:46:54;10.70;99.90
31765;DHT22;18338;53.240;8.798;2023-03-23T07:49:20;10.70;99.90
31765;DHT22;18338;53.240;8.798;2023-03-23T07:51:47;10.70;99.90
31765;DHT22;18338;53.240;8.798;2023-03-23T07:54:13;10.70;99.90
31765;DHT22;18338;53.240;8.798;2023-03-23T07:56:41;10.70;99.90
31765;DHT22;18338;53.240;8.798;2023-03-23T07:59:08;10.70;99.90
31765;DHT22;18338;53.240;8.798;2023-03-23T08:01:35;10.70;99.90
31765;DHT22;18338;53.240;8.798;2023-03-23T08:04:00;10.70;99.90
31765;DHT22;18338;53.240;8.798;2023-03-23T08:06:27;10.60;99.90
31765;DHT22;18338;53.240;8.798;2023-03-23T08:08:53;10.60;99.90
31765;DHT22;18338;53.240;8.798;2023-03-23T08:11:20;10.60;99.90
31765;DHT22;18338;53.240;8.798;2023-03-23T08:13:46;10.60;99.90
31765;DHT22;18338;53.240;8.798;2023-03-23T08:16:12;10.70;99.90
31765;DHT22;18338;53.240;8.798;2023-03-23T08:18:39;10.80;99.90
31765;DHT22;18338;53.240;8.798;2023-03-23T08:21:06;10.90;99.90
31765;DHT22;18338;53.240;8.798;2023-03-23T08:23:34;11.00;99.90
31765;DHT22;18338;53.240;8.798;2023-03-23T08:26:00;11.10;99.90
31765;DHT22;18338;53.240;8.798;2023-03-23T08:28:26;11.50;99.90
31765;DHT22;18338;53.240;8.798;2023-03-23T08:30:52;11.80;99.90
31765;DHT22;18338;53.240;8.798;2023-03-23T08:33:18;12.10;99.90
31765;DHT22;18338;53.240;8.798;2023-03-23T08:35:43;12.10;99.90
31765;DHT22;18338;53.240;8.798;2023-03-23T08:38:11;12.10;99.90
31765;DHT22;18338;53.240;8.798;2023-03-23T08:40:37;12.10;99.90
31765;DHT22;18338;53.240;8.798;2023-03-23T08:43:02;12.00;99.90
31765;DHT22;18338;53.240;8.798;2023-03-23T08:45:28;12.00;99.90
31765;DHT22;18338;53.240;8.798;2023-03-23T08:47:54;12.00;99.90
31765;DHT22;18338;53.240;8.798;2023-03-23T08:50:23;12.00;99.90
31765;DHT22;18338;53.240;8.798;2023-03-23T08:52:49;12.00;99.90
31765;DHT22;18338;53.240;8.798;2023-03-23T08:55:16;12.00;99.90
31765;DHT22;18338;53.240;8.798;2023-03-23T08:57:43;12.20;99.90
31765;DHT22;18338;53.240;8.798;2023-03-23T09:00:14;12.30;99.90
31765;DHT22;18338;53.240;8.798;2023-03-23T09:02:45;12.30;99.90
31765;DHT22;18338;53.240;8.798;2023-03-23T09:05:20;12.80;99.90
31765;DHT22;18338;53.240;8.798;2023-03-23T09:07:49;13.30;99.90
31765;DHT22;18338;53.240;8.798;2023-03-23T09:10:15;13.30;99.90
31765;DHT22;18338;53.240;8.798;2023-03-23T09:12:42;13.40;99.90
31765;DHT22;18338;53.240;8.798;2023-03-23T09:15:10;13.50;99.90
31765;DHT22;18338;53.240;8.798;2023-03-23T09:17:39;13.40;99.90
31765;DHT22;18338;53.240;8.798;2023-03-23T09:20:07;13.40;99.90
31765;DHT22;18338;53.240;8.798;2023-03-23T09:22:38;13.40;99.90
31765;DHT22;18338;53.240;8.798;2023-03-23T09:25:06;13.70;99.90
31765;DHT22;18338;53.240;8.798;2023-03-23T09:27:33;13.90;99.90
31765;DHT22;18338;53.240;8.798;2023-03-23T09:29:58;14.00;99.90
31765;DHT22;18338;53.240;8.798;2023-03-23T09:32:26;14.30;99.90
31765;DHT22;18338;53.240;8.798;2023-03-23T09:34:52;14.70;99.90
31765;DHT22;18338;53.240;8.798;2023-03-23T09:37:20;14.20;99.90
31765;DHT22;18338;53.240;8.798;2023-03-23T09:39:45;14.30;99.90
31765;DHT22;18338;53.240;8.798;2023-03-23T09:45:26;14.80;99.90
31765;DHT22;18338;53.240;8.798;2023-03-23T09:50:42;13.80;99.90
31765;DHT22;18338;53.240;8.798;2023-03-23T09:53:23;13.60;99.90
31765;DHT22;18338;53.240;8.798;2023-03-23T09:55:50;13.60;99.90
31765;DHT22;18338;53.240;8.798;2023-03-23T10:01:19;13.70;99.90
31765;DHT22;18338;53.240;8.798;2023-03-23T10:03:46;14.00;99.90
31765;DHT22;18338;53.240;8.798;2023-03-23T10:06:16;13.80;99.90
31765;DHT22;18338;53.240;8.798;2023-03-23T10:08:52;13.80;99.90
31765;DHT22;18338;53.240;8.798;2023-03-23T10:11:36;13.70;99.90
31765;DHT22;18338;53.240;8.798;2023-03-23T10:14:29;13.70;99.90
31765;DHT22;18338;53.240;8.798;2023-03-23T10:17:18;14.50;99.90
31765;DHT22;18338;53.240;8.798;2023-03-23T10:20:09;15.40;99.90
31765;DHT22;18338;53.240;8.798;2023-03-23T10:25:35;14.90;99.90
31765;DHT22;18338;53.240;8.798;2023-03-23T10:28:09;14.30;99.90
31765;DHT22;18338;53.240;8.798;2023-03-23T10:30:48;13.90;99.90
31765;DHT22;18338;53.240;8.798;2023-03-23T10:33:24;14.00;99.90
31765;DHT22;18338;53.240;8.798;2023-03-23T10:36:23;14.00;99.90
31765;DHT22;18338;53.240;8.798;2023-03-23T10:39:10;14.10;99.90
31765;DHT22;18338;53.240;8.798;2023-03-23T10:41:38;14.10;99.90
31765;DHT22;18338;53.240;8.798;2023-03-23T10:44:21;13.90;99.90
31765;DHT22;18338;53.240;8.798;2023-03-23T10:47:00;13.80;99.90
31765;DHT22;18338;53.240;8.798;2023-03-23T10:50:03;14.00;99.90
31765;DHT22;18338;53.240;8.798;2023-03-23T10:52:37;15.20;99.90
31765;DHT22;18338;53.240;8.798;2023-03-23T10:55:18;15.70;99.90
31765;DHT22;18338;53.240;8.798;2023-03-23T10:58:02;15.10;99.90
31765;DHT22;18338;53.240;8.798;2023-03-23T11:00:29;14.50;99.90
31765;DHT22;18338;53.240;8.798;2023-03-23T11:02:59;14.30;99.90
31765;DHT22;18338;53.240;8.798;2023-03-23T11:05:32;14.40;99.90
31765;DHT22;18338;53.240;8.798;2023-03-23T11:07:59;15.00;99.90
31765;DHT22;18338;53.240;8.798;2023-03-23T11:10:34;15.20;99.90
31765;DHT22;18338;53.240;8.798;2023-03-23T11:13:00;14.80;99.90
31765;DHT22;18338;53.240;8.798;2023-03-23T11:15:37;14.60;99.90
31765;DHT22;18338;53.240;8.798;2023-03-23T11:18:10;14.00;99.90
31765;DHT22;18338;53.240;8.798;2023-03-23T11:20:41;13.70;99.90
31765;DHT22;18338;53.240;8.798;2023-03-23T11:23:17;13.60;99.90
31765;DHT22;18338;53.240;8.798;2023-03-23T11:25:58;13.70;99.90
31765;DHT22;18338;53.240;8.798;2023-03-23T11:28:33;13.80;99.90
31765;DHT22;18338;53.240;8.798;2023-03-23T11:31:02;13.90;99.90
31765;DHT22;18338;53.240;8.798;2023-03-23T11:33:30;14.10;99.90
31765;DHT22;18338;53.240;8.798;2023-03-23T11:35:56;14.00;99.90
31765;DHT22;18338;53.240;8.798;2023-03-23T11:38:23;13.70;99.90
31765;DHT22;18338;53.240;8.798;2023-03-23T11:40:52;13.70;99.90
31765;DHT22;18338;53.240;8.798;2023-03-23T11:43:24;13.90;99.90
31765;DHT22;18338;53.240;8.798;2023-03-23T11:46:21;14.50;99.90
31765;DHT22;18338;53.240;8.798;2023-03-23T11:49:01;16.60;99.90
31765;DHT22;18338;53.240;8.798;2023-03-23T11:51:54;18.70;99.90
31765;DHT22;18338;53.240;8.798;2023-03-23T11:54:34;20.20;99.90
31765;DHT22;18338;53.240;8.798;2023-03-23T11:57:07;20.60;99.90
31765;DHT22;18338;53.240;8.798;2023-03-23T11:59:35;21.10;99.90
31765;DHT22;18338;53.240;8.798;2023-03-23T12:05:06;17.80;99.90
31765;DHT22;18338;53.240;8.798;2023-03-23T12:07:58;17.80;99.90
31765;DHT22;18338;53.240;8.798;2023-03-23T12:10:47;18.40;99.90
31765;DHT22;18338;53.240;8.798;2023-03-23T12:16:23;18.70;99.90
31765;DHT22;18338;53.240;8.798;2023-03-23T12:19:09;17.30;99.90
31765;DHT22;18338;53.240;8.798;2023-03-23T12:24:43;16.90;99.90
31765;DHT22;18338;53.240;8.798;2023-03-23T12:33:50;20.80;99.90
31765;DHT22;18338;53.240;8.798;2023-03-23T12:36:03;20.10;99.90
31765;DHT22;18338;53.240;8.798;2023-03-23T12:41:16;17.90;99.90
31765;DHT22;18338;53.240;8.798;2023-03-23T12:43:57;16.40;99.90
31765;DHT22;18338;53.240;8.798;2023-03-23T12:49:45;15.20;99.90
31765;DHT22;18338;53.240;8.798;2023-03-23T12:52:21;15.10;99.90
31765;DHT22;18338;53.240;8.798;2023-03-23T12:54:59;14.90;99.90
31765;DHT22;18338;53.240;8.798;2023-03-23T13:00:14;14.70;99.90
31765;DHT22;18338;53.240;8.798;2023-03-23T13:02:51;15.20;99.90
31765;DHT22;18338;53.240;8.798;2023-03-23T13:08:01;16.10;99.90
31765;DHT22;18338;53.240;8.798;2023-03-23T13:10:46;16.80;99.90
31765;DHT22;18338;53.240;8.798;2023-03-23T13:13:45;18.20;99.90
31765;DHT22;18338;53.240;8.798;2023-03-23T13:21:43;16.10;99.90
31765;DHT22;18338;53.240;8.798;2023-03-23T13:24:14;17.60;99.90
31765;DHT22;18338;53.240;8.798;2023-03-23T13:26:42;17.50;99.90
31765;DHT22;18338;53.240;8.798;2023-03-23T13:29:18;17.10;99.90
31765;DHT22;18338;53.240;8.798;2023-03-23T13:31:46;16.70;99.90
31765;DHT22;18338;53.240;8.798;2023-03-23T13:34:39;16.60;99.90
31765;DHT22;18338;53.240;8.798;2023-03-23T13:37:20;19.50;99.90
31765;DHT22;18338;53.240;8.798;2023-03-23T13:40:14;20.40;99.90
31765;DHT22;18338;53.240;8.798;2023-03-23T13:42:50;21.40;99.90
31765;DHT22;18338;53.240;8.798;2023-03-23T13:50:59;20.10;99.90
31765;DHT22;18338;53.240;8.798;2023-03-23T13:53:31;21.00;99.90
31765;DHT22;18338;53.240;8.798;2023-03-23T13:56:41;20.90;99.90
31765;DHT22;18338;53.240;8.798;2023-03-23T14:02:26;19.70;99.90
31765;DHT22;18338;53.240;8.798;2023-03-23T14:04:50;18.80;99.90
31765;DHT22;18338;53.240;8.798;2023-03-23T14:07:17;18.40;99.90
31765;DHT22;18338;53.240;8.798;2023-03-23T14:09:45;17.70;99.90
31765;DHT22;18338;53.240;8.798;2023-03-23T14:12:20;17.00;99.90
31765;DHT22;18338;53.240;8.798;2023-03-23T14:14:50;16.20;99.90
31765;DHT22;18338;53.240;8.798;2023-03-23T14:19:49;15.40;99.90
31765;DHT22;18338;53.240;8.798;2023-03-23T14:22:22;15.60;99.90
31765;DHT22;18338;53.240;8.798;2023-03-23T14:24:48;15.50;99.90
31765;DHT22;18338;53.240;8.798;2023-03-23T14:27:20;16.90;99.90
31765;DHT22;18338;53.240;8.798;2023-03-23T14:29:46;18.40;99.90
31765;DHT22;18338;53.240;8.798;2023-03-23T14:32:20;19.70;99.90
31765;DHT22;18338;53.240;8.798;2023-03-23T14:34:51;20.40;99.90
31765;DHT22;18338;53.240;8.798;2023-03-23T14:37:17;20.00;99.90
31765;DHT22;18338;53.240;8.798;2023-03-23T14:39:48;20.00;99.90
31765;DHT22;18338;53.240;8.798;2023-03-23T14:42:16;20.50;99.90
31765;DHT22;18338;53.240;8.798;2023-03-23T14:44:44;20.60;99.90
31765;DHT22;18338;53.240;8.798;2023-03-23T14:47:27;20.10;99.90
31765;DHT22;18338;53.240;8.798;2023-03-23T14:49:56;20.30;99.90
31765;DHT22;18338;53.240;8.798;2023-03-23T14:52:28;20.30;99.90
31765;DHT22;18338;53.240;8.798;2023-03-23T14:54:55;20.40;99.90
31765;DHT22;18338;53.240;8.798;2023-03-23T14:59:51;19.00;99.90
31765;DHT22;18338;53.240;8.798;2023-03-23T15:02:31;19.80;99.90
31765;DHT22;18338;53.240;8.798;2023-03-23T15:05:35;20.50;99.90
31765;DHT22;18338;53.240;8.798;2023-03-23T15:08:11;20.70;99.90
31765;DHT22;18338;53.240;8.798;2023-03-23T15:10:38;21.40;99.20
31765;DHT22;18338;53.240;8.798;2023-03-23T15:13:04;19.50;99.90
31765;DHT22;18338;53.240;8.798;2023-03-23T15:15:32;18.30;99.90
31765;DHT22;18338;53.240;8.798;2023-03-23T15:17:59;17.30;99.90
31765;DHT22;18338;53.240;8.798;2023-03-23T15:23:14;16.20;99.90
31765;DHT22;18338;53.240;8.798;2023-03-23T15:25:47;15.70;99.90
31765;DHT22;18338;53.240;8.798;2023-03-23T15:28:41;15.40;99.90
31765;DHT22;18338;53.240;8.798;2023-03-23T15:31:07;15.20;99.90
31765;DHT22;18338;53.240;8.798;2023-03-23T15:33:37;15.20;99.90
31765;DHT22;18338;53.240;8.798;2023-03-23T15:36:09;15.20;99.90
31765;DHT22;18338;53.240;8.798;2023-03-23T15:39:12;15.20;99.90
31765;DHT22;18338;53.240;8.798;2023-03-23T15:41:47;15.10;99.90
31765;DHT22;18338;53.240;8.798;2023-03-23T15:44:30;15.10;99.90
31765;DHT22;18338;53.240;8.798;2023-03-23T15:47:13;15.10;99.90
31765;DHT22;18338;53.240;8.798;2023-03-23T15:49:40;15.00;99.90
31765;DHT22;18338;53.240;8.798;2023-03-23T15:52:11;14.90;99.90
31765;DHT22;18338;53.240;8.798;2023-03-23T15:54:38;14.80;99.90
31765;DHT22;18338;53.240;8.798;2023-03-23T15:57:04;15.00;99.90
31765;DHT22;18338;53.240;8.798;2023-03-23T15:59:30;15.10;99.90
31765;DHT22;18338;53.240;8.798;2023-03-23T16:01:56;15.20;99.90
31765;DHT22;18338;53.240;8.798;2023-03-23T16:04:23;15.10;99.90
31765;DHT22;18338;53.240;8.798;2023-03-23T16:06:55;15.00;99.90
31765;DHT22;18338;53.240;8.798;2023-03-23T16:09:22;15.00;99.90
31765;DHT22;18338;53.240;8.798;2023-03-23T16:11:48;14.90;99.90
31765;DHT22;18338;53.240;8.798;2023-03-23T16:14:15;14.80;99.90
31765;DHT22;18338;53.240;8.798;2023-03-23T16:16:45;14.90;99.90
31765;DHT22;18338;53.240;8.798;2023-03-23T16:19:16;15.40;99.90
31765;DHT22;18338;53.240;8.798;2023-03-23T16:21:43;16.20;99.90
31765;DHT22;18338;53.240;8.798;2023-03-23T16:24:13;16.50;99.90
31765;DHT22;18338;53.240;8.798;2023-03-23T16:26:40;16.50;99.90
31765;DHT22;18338;53.240;8.798;2023-03-23T16:29:11;16.00;99.90
31765;DHT22;18338;53.240;8.798;2023-03-23T16:31:58;15.50;99.90
31765;DHT22;18338;53.240;8.798;2023-03-23T16:34:24;15.00;99.90
31765;DHT22;18338;53.240;8.798;2023-03-23T16:36:54;14.80;99.90
31765;DHT22;18338;53.240;8.798;2023-03-23T16:39:21;14.80;99.90
31765;DHT22;18338;53.240;8.798;2023-03-23T16:41:48;15.00;99.90
31765;DHT22;18338;53.240;8.798;2023-03-23T16:44:15;15.00;99.90
31765;DHT22;18338;53.240;8.798;2023-03-23T16:46:43;14.90;99.90
31765;DHT22;18338;53.240;8.798;2023-03-23T16:49:11;14.80;99.90
31765;DHT22;18338;53.240;8.798;2023-03-23T16:51:37;14.80;99.90
31765;DHT22;18338;53.240;8.798;2023-03-23T16:54:05;14.70;99.90
31765;DHT22;18338;53.240;8.798;2023-03-23T16:56:32;14.50;99.90
31765;DHT22;18338;53.240;8.798;2023-03-23T16:58:59;14.20;99.90
31765;DHT22;18338;53.240;8.798;2023-03-23T17:01:44;13.90;99.90
31765;DHT22;18338;53.240;8.798;2023-03-23T17:04:11;13.70;99.90
31765;DHT22;18338;53.240;8.798;2023-03-23T17:06:37;13.60;99.90